Flight Track Log - Related Links

Times and Time Zones

All times are in EDT time to prevent confusion due to time zone crossing. See the TRS9533 flight status page for this flight to view local times or setup timezone preferences in your user account.

Time Position Orientation Groundspeed Altitude Reporting Facility
EDT Latitude Longitude Course Direction KTS MPH feet Rate Location/Type
Tue 12:20:49 PM 42.2333 -83.3317 180° South 176 203 1,700  Level Cleveland Center
Tue 12:22:21 PM 42.3025 -83.2361 46° Northeast 266 306 5,300 2,531 Climbing Cleveland Center
Tue 12:23:16 PM 42.2958 -83.1544 96° East 271 312 7,900 2,132 Climbing Cleveland Center
Tue 12:24:22 PM 42.2439 -83.0569 126° Southeast 281 323 9,600 1,510 Climbing Cleveland Center
Tue 12:25:43 PM 42.1419 -83.0475 176° South 301 346 11,600 1,489 Climbing Cleveland Center
Tue 12:26:00 PM 41.6512 -83.4321 180° South  Level Estimated
Tue 12:26:43 PM 42.0578 -83.0889 200° South 308 354 13,100  Level Cleveland Center
Tue 12:27:43 PM 41.9772 -83.1417 206° Southwest 321 369 13,900 750 Climbing Cleveland Center
Tue 12:28:43 PM 41.8989 -83.2000 209° Southwest 321 369 14,600 600 Climbing Cleveland Center
Tue 12:29:43 PM 41.8142 -83.2522 205° Southwest 331 381 15,100 250 Climbing Cleveland Center
Tue 12:30:43 PM 41.7336 -83.3100 208° Southwest 331 381 15,100 -50 Level Cleveland Center
Tue 12:31:43 PM 41.6431 -83.3453 196° South 331 381 15,000 -50 Descending Cleveland Center
Tue 12:32:43 PM 41.5433 -83.3325 175° South 340 391 15,000  Level Cleveland Center
Tue 12:33:43 PM 41.4422 -83.3781 199° South 366 421 15,000  Level Cleveland Center
Tue 12:34:43 PM 41.3447 -83.4458 208° Southwest 387 445 15,000  Level Cleveland Center
Tue 12:35:43 PM 41.2411 -83.5019 202° Southwest 398 458 15,000  Level Cleveland Center
Tue 12:36:43 PM 41.1394 -83.5581 203° Southwest 398 458 15,000  Level Cleveland Center
Tue 12:38:12 PM 40.9919 -83.6422 203° Southwest 400 460 15,000  Level Indianapolis Center
Tue 12:39:13 PM 40.8903 -83.6992 203° Southwest 393 452 15,000  Level Indianapolis Center
Tue 12:40:15 PM 40.7911 -83.7517 202° Southwest 382 440 15,000 -49 Level Indianapolis Center
Tue 12:41:16 PM 40.6931 -83.8114 205° Southwest 333 383 14,900  Descending Indianapolis Center
Tue 12:42:18 PM 40.6119 -83.8661 207° Southwest 325 374 15,000 48 Climbing Indianapolis Center
Tue 12:43:20 PM 40.5269 -83.9103 202° Southwest 328 377 15,000  Level Indianapolis Center
Tue 12:44:21 PM 40.4472 -83.9489 200° South 306 352 15,000 -49 Level Indianapolis Center
Tue 12:45:23 PM 40.3889 -83.9861 206° Southwest 239 275 14,900  Descending Indianapolis Center
Tue 12:46:24 PM 40.3322 -84.0200 205° Southwest 224 258 15,000 341 Climbing Indianapolis Center
Tue 12:47:26 PM 40.2675 -84.0458 197° South 254 292 15,600 968 Climbing Indianapolis Center
Tue 12:48:28 PM 40.1828 -84.0617 188° South 306 352 17,000 1,512 Climbing Indianapolis Center
Tue 12:49:29 PM 40.0822 -84.0786 187° South 356 410 18,700 2,439 Climbing Indianapolis Center
Tue 12:50:31 PM 39.9581 -84.0981 187° South 381 438 22,000 2,780 Climbing Indianapolis Center
Tue 12:51:32 PM 39.8514 -84.1161 187° South 384 442 24,400 2,146 Climbing Indianapolis Center
Tue 12:52:34 PM 39.7431 -84.1331 187° South 389 448 26,400 1,742 Climbing Indianapolis Center
Tue 12:53:36 PM 39.6314 -84.1219 176° South 409 471 28,000 1,659 Climbing Indianapolis Center
Tue 12:54:37 PM 39.5194 -84.0692 160° South 423 487 29,800 2,098 Climbing Indianapolis Center
Tue 12:55:39 PM 39.4131 -84.0178 160° South 410 472 32,300 2,146 Climbing Indianapolis Center
Tue 12:56:40 PM 39.3094 -83.9694 160° South 397 457 34,200 1,317 Climbing Indianapolis Center
Tue 12:57:42 PM 39.2086 -83.9219 160° South 387 445 35,000 390 Climbing Indianapolis Center
Tue 12:58:43 PM 39.0925 -83.8683 160° South 379 436 35,000  Level Indianapolis Center
Tue 12:59:45 PM 38.9917 -83.8200 160° South 383 441 35,000  Level Indianapolis Center
Tue 01:00:47 PM 38.8922 -83.7736 160° South 378 435 35,000  Level Indianapolis Center
Tue 01:01:48 PM 38.7914 -83.7275 160° South 382 440 35,000  Level Indianapolis Center
Tue 01:02:50 PM 38.6914 -83.6794 159° South 381 438 35,000  Level Indianapolis Center
Tue 01:03:52 PM 38.5853 -83.6314 161° South 381 438 35,000  Level Indianapolis Center
Tue 01:04:53 PM 38.4850 -83.5850 160° South 381 438 35,000  Level Indianapolis Center
Tue 01:05:55 PM 38.3833 -83.5394 161° South 385 443 35,000  Level Indianapolis Center
Tue 01:06:57 PM 38.2828 -83.4925 160° South 384 442 35,000  Level Indianapolis Center
Tue 01:07:59 PM 38.1811 -83.4469 161° South 387 445 35,000  Level Indianapolis Center
Tue 01:09:00 PM 38.0625 -83.3922 160° South 388 447 35,000  Level Indianapolis Center
Tue 01:10:02 PM 37.9594 -83.3453 160° South 391 450 35,000  Level Indianapolis Center
Tue 01:11:04 PM 37.8558 -83.2986 160° South 393 452 35,000  Level Indianapolis Center
Tue 01:12:05 PM 37.7508 -83.2525 161° South 396 456 35,000  Level Indianapolis Center
Tue 01:13:07 PM 37.6456 -83.2053 160° South 400 460 35,000 339 Level Indianapolis Center
Tue 01:14:09 PM 37.5400 -83.1586 161° South 401 461 35,700 484 Climbing Indianapolis Center
Tue 01:15:11 PM 37.4353 -83.1114 160° South 399 459 36,000 146 Climbing Indianapolis Center
Tue 01:16:12 PM 37.3156 -83.0578 160° South 393 452 36,000  Level Indianapolis Center
Tue 01:17:14 PM 37.2114 -83.0322 169° South 382 440 36,000  Level Indianapolis Center
Tue 01:18:16 PM 37.1044 -83.0333 180° South 382 440 36,000  Level Indianapolis Center
Tue 01:19:17 PM 36.9989 -83.0364 181° South 383 441 36,000  Level Indianapolis Center
Tue 01:20:19 PM 36.8925 -83.0381 181° South 391 450 36,000  Level Indianapolis Center
Tue 01:21:21 PM 36.7675 -83.0381 180° South 391 450 36,000  Level Indianapolis Center
Tue 01:22:23 PM 36.6592 -83.0397 181° South 390 449 36,000  Level Indianapolis Center
Tue 01:23:24 PM 36.5522 -83.0406 180° South 386 444 36,000  Level Indianapolis Center
Tue 01:24:26 PM 36.4436 -83.0431 181° South 389 448 36,000  Level Indianapolis Center
Tue 01:25:28 PM 36.3342 -83.0439 180° South 390 449 36,000 -390 Level Indianapolis Center
Tue 01:26:29 PM 36.2061 -83.0458 181° South 393 452 35,200 -488 Descending Indianapolis Center
Tue 01:27:31 PM 36.0953 -83.0481 181° South 397 457 35,000 -97 Descending Indianapolis Center
Tue 01:28:33 PM 35.9833 -83.0500 181° South 399 459 35,000  Level Indianapolis Center
Tue 01:29:34 PM 35.8731 -83.0508 180° South 395 455 35,000  Level Indianapolis Center
Tue 01:30:36 PM 35.7631 -83.0572 183° South 394 453 35,000 -130 Level Indianapolis Center
Tue 01:31:52 PM 35.6208 -83.1217 200° South 401 461 34,700 -529 Descending Atlanta Center
Tue 01:32:52 PM 35.5192 -83.1711 202° Southwest 401 461 33,800 -950 Descending Atlanta Center
Tue 01:33:52 PM 35.4150 -83.2233 202° Southwest 401 461 32,800 -950 Descending Atlanta Center
Tue 01:34:52 PM 35.3214 -83.2675 201° Southwest 406 467 31,900 -950 Descending Atlanta Center
Tue 01:35:52 PM 35.2133 -83.3167 200° South 413 475 30,900 -1,050 Descending Atlanta Center
Tue 01:36:52 PM 35.0967 -83.3736 202° Southwest 418 481 29,800 -1,000 Descending Atlanta Center
Tue 01:37:52 PM 34.9886 -83.4253 201° Southwest 413 475 28,900 -950 Descending Atlanta Center
Tue 01:38:52 PM 34.8886 -83.4742 202° Southwest 422 486 27,900 -1,000 Descending Atlanta Center
Tue 01:39:52 PM 34.7803 -83.5253 201° Southwest 422 486 26,900 -1,300 Descending Atlanta Center
Tue 01:40:52 PM 34.6594 -83.5817 201° Southwest 428 493 25,300 -1,700 Descending Atlanta Center
Tue 01:41:52 PM 34.5469 -83.6303 200° South 428 493 23,500 -1,800 Descending Atlanta Center
Tue 01:42:52 PM 34.4408 -83.6836 203° Southwest 428 493 21,700 -1,800 Descending Atlanta Center
Tue 01:43:52 PM 34.3364 -83.7319 201° Southwest 413 475 19,900 -1,800 Descending Atlanta Center
Tue 01:44:52 PM 34.2344 -83.7800 201° Southwest 408 470 18,100 -2,000 Descending Atlanta Center
Tue 01:45:52 PM 34.1322 -83.8256 200° South 403 464 15,900 -2,300 Descending Atlanta Center
Tue 01:46:52 PM 34.0447 -83.8908 212° Southwest 381 438 13,500 -2,114 Descending Atlanta Center
Tue 01:47:37 PM 33.9833 -83.9500 219° Southwest 358 412 12,200 -857 Descending Atlanta TRACON
Tue 01:48:37 PM 33.9167 -84.0333 226° Southwest 359 413 12,000 -95 Descending Atlanta TRACON
Tue 01:49:43 PM 33.8333 -84.1167 220° Southwest 329 379 12,000  Level Atlanta TRACON
Tue 01:50:43 PM 33.7667 -84.1500 203° Southwest 277 319 12,000  Level Atlanta TRACON
Tue 01:51:37 PM 33.7333 -84.2167 239° Southwest 287 330 12,000 -105 Level Atlanta TRACON
Tue 01:52:37 PM 33.7333 -84.3167 270° West 265 305 11,800 -952 Descending Atlanta TRACON
Tue 01:53:43 PM 33.7333 -84.4000 270° West 267 307 10,000 -1,810 Descending Atlanta TRACON
Tue 01:54:43 PM 33.7333 -84.5000 270° West 255 293 8,000 -2,100 Descending Atlanta TRACON
Tue 01:55:43 PM 33.7333 -84.5833 270° West 248 285 5,800 -1,500 Descending Atlanta TRACON
Tue 01:56:43 PM 33.7333 -84.6667 270° West 246 283 5,000 -400 Descending Atlanta TRACON
Tue 01:57:43 PM 33.7333 -84.7333 270° West 242 278 5,000  Level Atlanta TRACON
Tue 01:58:43 PM 33.7333 -84.8167 270° West 245 282 5,000  Level Atlanta TRACON
Tue 01:59:43 PM 33.7000 -84.8833 239° Southwest 229 264 5,000  Level Atlanta TRACON
Tue 02:00:43 PM 33.6667 -84.8500 140° Southeast 200 230 5,000  Level Atlanta TRACON
Tue 02:01:43 PM 33.6500 -84.7833 107° East 207 238 5,000  Level Atlanta TRACON
Tue 02:02:43 PM 33.6500 -84.7167 90° East 203 234 5,000 -200 Level Atlanta TRACON
Tue 02:03:43 PM 33.6500 -84.6500 90° East 199 229 4,600 -800 Descending Atlanta TRACON
Tue 02:04:43 PM 33.6500 -84.5833 90° East 205 236 3,400 -1,050 Descending Atlanta TRACON
Tue 02:05:43 PM 33.6500 -84.5333 90° East 178 205 2,500 -850 Descending Atlanta TRACON
Tue 02:06:43 PM 33.6500 -84.4833 90° East 141 162 1,700 -800 Descending Atlanta TRACON
Tue 02:08:00 PM 33.6367 -84.4279 64° Northeast  Level Estimated
Tue 02:15:00 PM 33.6367 -84.4279 64° Northeast  Level Estimated
Tue 02:16:00 PM 33.6367 -84.4279 64° Northeast  Level Estimated

Login

Don't have an account? Register now (free) for customized features, flight alerts, and more!